createdAt,value
2023-04-20T00:01:18.052Z,7.96
2023-04-20T00:03:45.632Z,7.84
2023-04-20T00:06:14.078Z,7.66
2023-04-20T00:08:41.421Z,7.67
2023-04-20T00:11:08.637Z,7.82
2023-04-20T00:13:35.916Z,7.76
2023-04-20T00:16:03.353Z,7.74
2023-04-20T00:18:30.961Z,7.82
2023-04-20T00:20:58.222Z,7.85
2023-04-20T00:23:26.017Z,7.71
2023-04-20T00:25:54.600Z,7.72
2023-04-20T00:28:21.933Z,7.79
2023-04-20T00:30:49.566Z,7.59
2023-04-20T00:33:16.866Z,7.65
2023-04-20T00:35:44.282Z,7.61
2023-04-20T00:38:11.533Z,7.67
2023-04-20T00:40:38.808Z,7.83
2023-04-20T00:43:14.169Z,7.76
2023-04-20T00:45:41.686Z,7.61
2023-04-20T00:48:10.667Z,7.62
2023-04-20T00:50:39.896Z,7.80
2023-04-20T00:53:08.583Z,7.58
2023-04-20T00:55:38.435Z,7.51
2023-04-20T00:58:06.895Z,7.64
2023-04-20T01:00:34.812Z,7.76
2023-04-20T01:03:02.350Z,7.74
2023-04-20T01:05:30.126Z,7.77
2023-04-20T01:07:57.343Z,7.68
2023-04-20T01:10:24.633Z,7.81
2023-04-20T01:12:51.886Z,7.93
2023-04-20T01:15:19.167Z,7.99
2023-04-20T01:17:47.291Z,7.90
2023-04-20T01:20:15.173Z,7.75
2023-04-20T01:22:51.419Z,7.74
2023-04-20T01:25:18.909Z,7.83
2023-04-20T01:27:46.841Z,7.88
2023-04-20T01:30:14.605Z,7.73
2023-04-20T01:32:41.962Z,7.76
2023-04-20T01:35:10.596Z,7.84
2023-04-20T01:37:39.413Z,7.98
2023-04-20T01:40:10.552Z,7.92
2023-04-20T01:42:38.284Z,7.95
2023-04-20T01:45:07.288Z,7.85
2023-04-20T01:47:36.040Z,7.76
2023-04-20T01:50:03.384Z,7.79
2023-04-20T01:52:30.630Z,7.88
2023-04-20T01:54:57.881Z,7.97
2023-04-20T01:57:25.357Z,7.97
2023-04-20T01:59:52.608Z,7.90
2023-04-20T02:02:20.087Z,7.89
2023-04-20T02:04:47.367Z,7.85
2023-04-20T02:07:14.573Z,7.95
2023-04-20T02:09:41.783Z,7.93
2023-04-20T02:12:10.386Z,7.76
2023-04-20T02:14:39.937Z,7.77
2023-04-20T02:17:10.673Z,7.87
2023-04-20T02:19:38.357Z,8.01
2023-04-20T02:22:05.685Z,7.90
2023-04-20T02:24:33.134Z,7.90
2023-04-20T02:27:01.205Z,7.85
2023-04-20T02:29:28.509Z,7.90
2023-04-20T02:31:55.805Z,7.75
2023-04-20T02:34:23.417Z,7.66
2023-04-20T02:36:50.659Z,7.65
2023-04-20T02:39:18.044Z,7.56
2023-04-20T02:41:45.970Z,7.69
2023-04-20T02:44:13.483Z,7.84
2023-04-20T02:46:40.928Z,7.84
2023-04-20T02:49:08.622Z,7.86
2023-04-20T02:51:40.713Z,7.95
2023-04-20T02:54:08.086Z,7.99
2023-04-20T02:56:36.012Z,7.83
2023-04-20T02:59:07.818Z,7.89
2023-04-20T03:01:40.944Z,7.84
2023-04-20T03:04:15.288Z,7.86
2023-04-20T03:07:12.121Z,7.90
2023-04-20T03:09:40.722Z,8.00
2023-04-20T03:12:27.674Z,8.01
2023-04-20T03:15:09.189Z,8.00
2023-04-20T03:17:55.265Z,7.98
2023-04-20T03:20:22.738Z,7.91
2023-04-20T03:22:50.440Z,7.84
2023-04-20T03:25:19.684Z,7.92
2023-04-20T03:27:54.101Z,7.82
2023-04-20T03:30:21.911Z,7.86
2023-04-20T03:32:54.705Z,7.65
2023-04-20T03:35:22.184Z,7.65
2023-04-20T03:37:49.619Z,7.65
2023-04-20T03:40:16.896Z,7.57
2023-04-20T03:42:44.247Z,7.55
2023-04-20T03:45:12.422Z,7.57
2023-04-20T03:47:39.795Z,7.63
2023-04-20T03:50:07.810Z,7.80
2023-04-20T03:52:35.621Z,7.76
2023-04-20T03:55:06.396Z,7.97
2023-04-20T03:57:35.075Z,7.97
2023-04-20T04:00:05.076Z,7.92
2023-04-20T04:02:45.862Z,7.91
2023-04-20T04:05:15.938Z,7.95
2023-04-20T04:07:43.293Z,7.89
2023-04-20T04:10:11.498Z,7.85
2023-04-20T04:12:39.243Z,7.98
2023-04-20T04:15:08.332Z,8.06
2023-04-20T04:17:41.689Z,8.03
2023-04-20T04:20:10.417Z,8.23
2023-04-20T04:22:38.180Z,8.11
2023-04-20T04:25:24.278Z,8.05
2023-04-20T04:27:51.748Z,8.11
2023-04-20T04:30:20.124Z,8.10
2023-04-20T04:32:49.107Z,8.14
2023-04-20T04:35:17.281Z,8.26
2023-04-20T04:37:44.649Z,8.19
2023-04-20T04:40:12.146Z,8.19
2023-04-20T04:42:39.953Z,8.42
2023-04-20T04:45:10.495Z,8.63
2023-04-20T04:47:42.352Z,8.44
2023-04-20T04:50:10.661Z,8.45
2023-04-20T04:52:38.065Z,8.50
2023-04-20T04:55:09.970Z,8.56
2023-04-20T04:57:38.773Z,8.58
2023-04-20T05:00:12.069Z,8.48
2023-04-20T05:02:39.873Z,8.84
2023-04-20T05:05:10.070Z,8.82
2023-04-20T05:07:38.584Z,8.98
2023-04-20T05:10:07.978Z,8.97
2023-04-20T05:12:35.362Z,8.92
2023-04-20T05:15:03.069Z,9.21
2023-04-20T05:17:30.531Z,9.33
2023-04-20T05:19:57.873Z,9.21
2023-04-20T05:22:25.255Z,9.23
2023-04-20T05:24:52.366Z,9.24
2023-04-20T05:27:19.668Z,9.16
2023-04-20T05:29:47.350Z,9.12
2023-04-20T05:32:14.616Z,8.91
2023-04-20T05:34:41.866Z,8.73
2023-04-20T05:37:09.546Z,8.79
2023-04-20T05:39:36.802Z,8.83
2023-04-20T05:42:04.075Z,8.93
2023-04-20T05:44:31.368Z,8.68
2023-04-20T05:46:58.721Z,8.74
2023-04-20T05:49:26.298Z,8.56
2023-04-20T05:51:53.634Z,8.85
2023-04-20T05:54:20.947Z,8.65
2023-04-20T05:56:48.324Z,8.45
2023-04-20T05:59:17.525Z,8.70
2023-04-20T06:01:44.966Z,8.68
2023-04-20T06:04:12.511Z,8.83
2023-04-20T06:06:39.981Z,9.06
2023-04-20T06:09:07.167Z,9.27
2023-04-20T06:11:34.580Z,9.16
2023-04-20T06:14:01.906Z,9.45
2023-04-20T06:16:29.409Z,9.58
2023-04-20T06:18:57.033Z,9.56
2023-04-20T06:21:24.825Z,9.38
2023-04-20T06:23:52.186Z,9.55
2023-04-20T06:26:19.380Z,9.70
2023-04-20T06:28:48.456Z,9.68
2023-04-20T06:31:15.877Z,9.82
2023-04-20T06:33:43.070Z,9.88
2023-04-20T06:36:10.562Z,9.99
2023-04-20T06:38:38.029Z,9.99
2023-04-20T06:41:05.661Z,9.95
2023-04-20T06:43:33.340Z,9.72
2023-04-20T06:46:00.703Z,9.70
2023-04-20T06:48:32.387Z,9.79
2023-04-20T06:51:01.834Z,10.05
2023-04-20T06:53:29.249Z,9.73
2023-04-20T06:55:57.182Z,9.76
2023-04-20T06:58:24.486Z,10.00
2023-04-20T07:00:51.674Z,10.13
2023-04-20T07:03:19.507Z,10.08
2023-04-20T07:05:47.039Z,10.09
2023-04-20T07:08:16.021Z,9.86
2023-04-20T07:10:43.643Z,9.91
2023-04-20T07:13:11.046Z,10.36
2023-04-20T07:15:38.383Z,10.93
2023-04-20T07:18:06.418Z,11.32
2023-04-20T07:20:33.617Z,11.39
2023-04-20T07:23:00.935Z,11.74
2023-04-20T07:25:28.279Z,11.69
2023-04-20T07:27:55.553Z,11.76
2023-04-20T07:30:23.144Z,12.13
2023-04-20T07:32:51.850Z,12.53
2023-04-20T07:35:19.205Z,12.90
2023-04-20T07:37:46.447Z,12.52
2023-04-20T07:40:13.858Z,12.28
2023-04-20T07:42:41.270Z,12.21
2023-04-20T07:45:10.751Z,12.05
2023-04-20T07:47:38.350Z,12.18
2023-04-20T07:50:07.464Z,12.21
2023-04-20T07:52:34.829Z,12.02
2023-04-20T07:55:02.246Z,12.38
2023-04-20T07:57:30.128Z,12.15
2023-04-20T07:59:57.406Z,12.45
2023-04-20T08:02:24.888Z,13.46
2023-04-20T08:04:52.610Z,13.94
2023-04-20T08:07:20.198Z,13.65
2023-04-20T08:09:47.461Z,12.80
2023-04-20T08:12:14.722Z,12.10
2023-04-20T08:14:42.044Z,12.31
2023-04-20T08:17:09.297Z,12.50
2023-04-20T08:19:36.662Z,12.98
2023-04-20T08:22:05.531Z,13.53
2023-04-20T08:24:32.909Z,13.41
2023-04-20T08:27:00.192Z,13.74
2023-04-20T08:29:27.343Z,14.05
2023-04-20T08:31:54.719Z,14.88
2023-04-20T08:34:22.120Z,15.52
2023-04-20T08:36:49.429Z,15.59
2023-04-20T08:39:22.416Z,16.09
2023-04-20T08:41:55.536Z,17.35
2023-04-20T08:44:24.369Z,19.78
2023-04-20T08:46:51.959Z,21.34
2023-04-20T08:49:21.674Z,19.93
2023-04-20T08:51:49.504Z,20.37
2023-04-20T08:54:17.517Z,23.80
2023-04-20T08:56:48.186Z,25.52
2023-04-20T08:59:17.032Z,25.84
2023-04-20T09:01:45.479Z,25.25
2023-04-20T09:04:23.104Z,27.17
2023-04-20T09:06:54.372Z,28.72
2023-04-20T09:09:25.293Z,29.23
2023-04-20T09:12:07.232Z,29.61
2023-04-20T09:14:49.065Z,28.98
2023-04-20T09:17:18.151Z,26.13
2023-04-20T09:19:52.686Z,26.49
2023-04-20T09:22:35.481Z,23.06
2023-04-20T09:25:20.195Z,21.02
2023-04-20T09:28:01.952Z,20.87
2023-04-20T09:30:49.451Z,21.46
2023-04-20T09:33:16.828Z,21.10
2023-04-20T09:35:45.908Z,19.58
2023-04-20T09:38:17.188Z,18.24
2023-04-20T09:40:44.593Z,17.28
2023-04-20T09:43:20.613Z,16.58
2023-04-20T09:45:49.267Z,15.58
2023-04-20T09:48:19.665Z,15.10
2023-04-20T09:50:49.870Z,15.57
2023-04-20T09:53:19.957Z,15.89
2023-04-20T09:55:53.940Z,17.27
2023-04-20T09:58:21.959Z,21.24
2023-04-20T10:00:50.086Z,23.84
2023-04-20T10:03:19.618Z,24.59
2023-04-20T10:05:47.300Z,23.30
2023-04-20T10:08:14.647Z,21.88
2023-04-20T10:10:50.677Z,21.06
2023-04-20T10:13:19.685Z,21.45
2023-04-20T10:15:47.311Z,20.45
2023-04-20T10:18:23.817Z,19.87
2023-04-20T10:20:52.595Z,18.82
2023-04-20T10:23:20.371Z,18.06
2023-04-20T10:26:00.930Z,17.07
2023-04-20T10:28:44.418Z,16.42
2023-04-20T10:31:13.914Z,15.88
2023-04-20T10:33:55.943Z,16.58
2023-04-20T10:36:25.714Z,16.42
2023-04-20T10:38:53.390Z,16.68
2023-04-20T10:41:21.255Z,17.16
2023-04-20T10:43:48.524Z,17.79
2023-04-20T10:46:25.603Z,17.82
2023-04-20T10:49:02.015Z,18.62
2023-04-20T10:51:29.459Z,17.46
2023-04-20T10:54:08.460Z,17.21
2023-04-20T10:56:44.930Z,17.30
2023-04-20T10:59:17.992Z,17.34
2023-04-20T11:01:47.072Z,16.98
2023-04-20T11:04:18.384Z,16.92
2023-04-20T11:06:50.931Z,16.79
2023-04-20T11:09:26.275Z,16.34
2023-04-20T11:12:07.302Z,16.29
2023-04-20T11:14:38.492Z,17.55
2023-04-20T11:17:06.545Z,19.93
2023-04-20T11:19:37.598Z,20.36
2023-04-20T11:22:06.617Z,19.72
2023-04-20T11:24:34.753Z,19.10
2023-04-20T11:27:04.984Z,18.69
2023-04-20T11:29:36.834Z,18.90
2023-04-20T11:32:11.619Z,18.60
2023-04-20T11:34:40.467Z,17.80
2023-04-20T11:37:13.862Z,17.72
2023-04-20T11:39:41.771Z,18.07
2023-04-20T11:42:09.098Z,18.35
2023-04-20T11:44:37.144Z,17.81
2023-04-20T11:47:04.850Z,17.94
2023-04-20T11:49:32.479Z,18.50
2023-04-20T11:51:59.722Z,19.54
2023-04-20T11:54:28.473Z,19.96
2023-04-20T11:56:56.542Z,18.90
2023-04-20T11:59:23.830Z,18.57
2023-04-20T12:01:51.005Z,19.06
2023-04-20T12:04:18.711Z,18.44
2023-04-20T12:06:46.162Z,18.26
2023-04-20T12:09:17.225Z,18.18
2023-04-20T12:11:44.669Z,18.26
2023-04-20T12:14:11.945Z,17.42
2023-04-20T12:16:39.161Z,17.06
2023-04-20T12:19:09.076Z,16.94
2023-04-20T12:21:36.615Z,16.76
2023-04-20T12:24:04.347Z,17.07
2023-04-20T12:26:41.178Z,16.81
2023-04-20T12:29:08.631Z,16.59
2023-04-20T12:31:36.560Z,17.21
2023-04-20T12:34:04.318Z,16.95
2023-04-20T12:36:32.580Z,18.07
2023-04-20T12:38:59.804Z,17.87
2023-04-20T12:41:27.273Z,18.06
2023-04-20T12:43:54.474Z,18.25
2023-04-20T12:46:21.797Z,18.08
2023-04-20T12:48:49.075Z,18.13
2023-04-20T12:51:16.678Z,18.16
2023-04-20T12:53:43.944Z,18.44
2023-04-20T12:56:11.286Z,18.63
2023-04-20T12:58:38.785Z,19.06
2023-04-20T13:01:06.253Z,19.12
2023-04-20T13:03:33.614Z,18.21
2023-04-20T13:06:01.356Z,17.99
2023-04-20T13:08:28.680Z,17.21
2023-04-20T13:10:55.934Z,17.43
2023-04-20T13:13:23.210Z,17.51
2023-04-20T13:15:53.173Z,17.48
2023-04-20T13:18:21.700Z,17.48
2023-04-20T13:20:48.959Z,17.55
2023-04-20T13:23:16.381Z,17.50
2023-04-20T13:25:43.674Z,17.33
2023-04-20T13:28:14.458Z,17.29
2023-04-20T13:30:42.176Z,17.57
2023-04-20T13:33:09.567Z,17.42
2023-04-20T13:35:37.336Z,17.27
2023-04-20T13:38:05.420Z,17.60
2023-04-20T13:40:32.869Z,17.44
2023-04-20T13:43:00.124Z,17.09
2023-04-20T13:45:28.112Z,17.01
2023-04-20T13:47:55.570Z,17.14
2023-04-20T13:50:23.007Z,17.07
2023-04-20T13:52:50.289Z,17.13
2023-04-20T13:55:20.355Z,17.00
2023-04-20T13:57:48.025Z,17.01
2023-04-20T14:00:15.646Z,17.12
2023-04-20T14:02:43.061Z,17.33
2023-04-20T14:05:11.288Z,17.00
2023-04-20T14:07:39.036Z,16.80
2023-04-20T14:10:07.413Z,16.82
2023-04-20T14:12:34.846Z,16.96
2023-04-20T14:15:02.421Z,17.06
2023-04-20T14:17:29.618Z,17.08
2023-04-20T14:19:56.909Z,16.76
2023-04-20T14:22:24.204Z,16.85
2023-04-20T14:24:51.424Z,16.92
2023-04-20T14:27:18.855Z,17.09
2023-04-20T14:29:46.247Z,17.32
2023-04-20T14:32:13.567Z,16.97
2023-04-20T14:34:40.854Z,16.79
2023-04-20T14:37:08.118Z,16.56
2023-04-20T14:39:35.260Z,16.42
2023-04-20T14:42:02.555Z,16.51
2023-04-20T14:44:29.781Z,16.79
2023-04-20T14:46:57.154Z,16.85
2023-04-20T14:49:24.423Z,16.94
2023-04-20T14:51:51.720Z,16.98
2023-04-20T14:54:19.144Z,16.69
2023-04-20T14:56:46.685Z,16.66
2023-04-20T14:59:14.012Z,16.94
2023-04-20T15:01:48.431Z,16.51
2023-04-20T15:04:26.509Z,16.24
2023-04-20T15:06:54.079Z,16.25
2023-04-20T15:09:21.290Z,16.46
2023-04-20T15:11:48.621Z,16.41
2023-04-20T15:14:16.031Z,16.40
2023-04-20T15:16:43.499Z,16.30
2023-04-20T15:19:10.655Z,16.12
2023-04-20T15:21:38.052Z,16.06
2023-04-20T15:24:06.059Z,16.04
2023-04-20T15:26:33.691Z,16.07
2023-04-20T15:29:01.092Z,16.20
2023-04-20T15:31:28.325Z,16.36
2023-04-20T15:34:00.632Z,16.13
2023-04-20T15:36:27.925Z,16.04
2023-04-20T15:38:57.520Z,15.65
2023-04-20T15:41:25.314Z,15.70
2023-04-20T15:43:52.524Z,15.84
2023-04-20T15:46:23.487Z,15.72
2023-04-20T15:48:50.963Z,15.61
2023-04-20T15:51:20.124Z,15.67
2023-04-20T15:53:50.931Z,15.72
2023-04-20T15:56:18.897Z,15.72
2023-04-20T15:58:46.427Z,15.81
2023-04-20T16:01:13.763Z,15.73
2023-04-20T16:03:42.606Z,15.74
2023-04-20T16:06:11.524Z,15.78
2023-04-20T16:08:39.079Z,15.87
2023-04-20T16:11:07.443Z,15.95
2023-04-20T16:13:36.410Z,16.07
2023-04-20T16:16:03.865Z,16.08
2023-04-20T16:18:32.314Z,15.97
2023-04-20T16:20:59.595Z,15.99
2023-04-20T16:23:26.990Z,15.91
2023-04-20T16:25:54.268Z,15.76
2023-04-20T16:28:21.596Z,15.46
2023-04-20T16:30:48.850Z,15.41
2023-04-20T16:33:16.595Z,15.29
2023-04-20T16:35:43.952Z,15.10
2023-04-20T16:38:11.215Z,15.17
2023-04-20T16:40:38.488Z,14.98
2023-04-20T16:43:05.837Z,14.97
2023-04-20T16:45:33.773Z,14.97
2023-04-20T16:48:01.100Z,14.97
2023-04-20T16:50:28.636Z,14.94
2023-04-20T16:52:55.887Z,14.80
2023-04-20T16:55:23.919Z,14.80
2023-04-20T16:57:51.413Z,14.62
2023-04-20T17:00:18.998Z,14.50
2023-04-20T17:02:46.435Z,14.43
2023-04-20T17:05:13.898Z,14.46
2023-04-20T17:07:41.123Z,14.45
2023-04-20T17:10:08.760Z,14.31
2023-04-20T17:12:36.025Z,14.12
2023-04-20T17:15:03.695Z,14.13
2023-04-20T17:17:31.392Z,14.03
2023-04-20T17:19:58.654Z,14.00
2023-04-20T17:22:26.117Z,13.92
2023-04-20T17:24:54.163Z,13.94
2023-04-20T17:27:23.014Z,13.92
2023-04-20T17:29:50.454Z,13.89
2023-04-20T17:32:17.966Z,13.77
2023-04-20T17:34:48.287Z,13.74
2023-04-20T17:37:15.949Z,13.70
2023-04-20T17:39:43.619Z,13.75
2023-04-20T17:42:12.906Z,13.68
2023-04-20T17:44:40.308Z,13.46
2023-04-20T17:47:09.550Z,13.41
2023-04-20T17:49:36.871Z,13.44
2023-04-20T17:52:04.365Z,13.35
2023-04-20T17:54:33.992Z,13.51
2023-04-20T17:57:01.697Z,13.48
2023-04-20T17:59:30.718Z,13.66
2023-04-20T18:01:58.579Z,13.47
2023-04-20T18:04:26.285Z,13.39
2023-04-20T18:06:53.962Z,13.53
2023-04-20T18:09:21.248Z,13.35
2023-04-20T18:11:48.467Z,13.30
2023-04-20T18:14:15.845Z,13.39
2023-04-20T18:16:43.226Z,13.09
2023-04-20T18:19:10.509Z,13.01
2023-04-20T18:21:37.752Z,13.04
2023-04-20T18:24:06.620Z,12.86
2023-04-20T18:26:33.854Z,13.05
2023-04-20T18:29:01.087Z,13.01
2023-04-20T18:31:28.524Z,12.89
2023-04-20T18:33:55.825Z,12.88
2023-04-20T18:36:23.204Z,12.81
2023-04-20T18:38:51.512Z,12.73
2023-04-20T18:41:19.119Z,12.61
2023-04-20T18:43:47.189Z,12.65
2023-04-20T18:46:14.339Z,12.72
2023-04-20T18:48:41.868Z,12.72
2023-04-20T18:51:09.152Z,12.73
2023-04-20T18:53:36.530Z,12.61
2023-04-20T18:56:04.053Z,12.57
2023-04-20T18:58:31.961Z,12.60
2023-04-20T19:01:01.114Z,12.53
2023-04-20T19:03:28.495Z,12.58
2023-04-20T19:05:55.930Z,12.67
2023-04-20T19:08:24.107Z,12.55
2023-04-20T19:10:54.051Z,12.55
2023-04-20T19:13:21.525Z,12.36
2023-04-20T19:15:49.237Z,12.26
2023-04-20T19:18:16.586Z,12.15
2023-04-20T19:20:43.953Z,12.09
2023-04-20T19:23:11.327Z,12.05
2023-04-20T19:25:38.670Z,11.96
2023-04-20T19:28:08.268Z,11.92
2023-04-20T19:30:36.165Z,11.87
2023-04-20T19:33:05.312Z,11.75
2023-04-20T19:35:33.094Z,11.78
2023-04-20T19:38:00.775Z,11.82
2023-04-20T19:40:28.188Z,11.84
2023-04-20T19:42:55.685Z,11.73
2023-04-20T19:45:23.754Z,11.53
2023-04-20T19:47:52.015Z,11.62
2023-04-20T19:50:19.451Z,11.75
2023-04-20T19:52:46.744Z,11.68
2023-04-20T19:55:14.134Z,11.66
2023-04-20T19:57:41.580Z,11.65
2023-04-20T20:00:10.236Z,11.53
2023-04-20T20:02:41.534Z,11.57
2023-04-20T20:05:10.054Z,11.55
2023-04-20T20:07:37.881Z,11.73
2023-04-20T20:10:06.475Z,11.70
2023-04-20T20:12:33.968Z,11.78
2023-04-20T20:15:01.290Z,11.95
2023-04-20T20:17:28.790Z,12.05
2023-04-20T20:19:56.284Z,12.14
2023-04-20T20:22:23.663Z,12.15
2023-04-20T20:24:54.199Z,12.00
2023-04-20T20:27:21.815Z,11.84
2023-04-20T20:29:49.195Z,11.68
2023-04-20T20:32:16.518Z,11.43
2023-04-20T20:34:43.743Z,11.16
2023-04-20T20:37:10.931Z,10.99
2023-04-20T20:39:39.183Z,10.91
2023-04-20T20:42:07.805Z,10.80
2023-04-20T20:44:39.086Z,10.65
2023-04-20T20:47:06.878Z,10.52
2023-04-20T20:49:34.147Z,10.40
2023-04-20T20:52:02.429Z,10.33
2023-04-20T20:54:29.690Z,10.24
2023-04-20T20:56:57.683Z,10.22
2023-04-20T20:59:25.085Z,10.13
2023-04-20T21:01:52.420Z,9.93
2023-04-20T21:04:19.706Z,9.98
2023-04-20T21:06:47.144Z,9.99
2023-04-20T21:09:15.485Z,9.97
2023-04-20T21:11:42.907Z,9.73
2023-04-20T21:14:10.739Z,9.65
2023-04-20T21:16:38.126Z,9.56
2023-04-20T21:19:05.877Z,9.41
2023-04-20T21:21:34.371Z,9.56
2023-04-20T21:24:01.677Z,9.42
2023-04-20T21:26:34.868Z,9.28
2023-04-20T21:29:05.972Z,9.11
2023-04-20T21:31:33.763Z,9.10
2023-04-20T21:34:01.178Z,9.16
2023-04-20T21:36:28.454Z,9.14
2023-04-20T21:38:55.993Z,9.16
2023-04-20T21:41:23.321Z,9.11
2023-04-20T21:43:53.219Z,9.11
2023-04-20T21:46:20.704Z,9.03
2023-04-20T21:48:48.199Z,9.02
2023-04-20T21:51:17.140Z,8.98
2023-04-20T21:53:45.477Z,9.04
2023-04-20T21:56:14.814Z,8.93
2023-04-20T21:58:42.246Z,8.84
2023-04-20T22:01:09.530Z,8.91
2023-04-20T22:03:37.979Z,8.92
2023-04-20T22:06:06.522Z,8.85
2023-04-20T22:08:33.787Z,8.79
2023-04-20T22:11:01.044Z,8.68
2023-04-20T22:13:28.247Z,8.56
2023-04-20T22:15:55.671Z,8.65
2023-04-20T22:18:23.038Z,8.87
2023-04-20T22:20:51.652Z,8.99
2023-04-20T22:23:18.975Z,8.99
2023-04-20T22:25:46.294Z,8.79
2023-04-20T22:28:13.679Z,8.64
2023-04-20T22:30:42.408Z,8.46
2023-04-20T22:33:09.871Z,8.50
2023-04-20T22:35:37.224Z,8.40
2023-04-20T22:38:04.787Z,8.24
2023-04-20T22:40:32.216Z,8.15
2023-04-20T22:42:59.385Z,8.21
2023-04-20T22:45:26.681Z,8.21
2023-04-20T22:47:54.006Z,8.20
2023-04-20T22:50:21.390Z,8.08
2023-04-20T22:52:49.754Z,7.95
2023-04-20T22:55:17.128Z,7.98
2023-04-20T22:57:44.767Z,7.96
2023-04-20T23:00:13.899Z,7.87
2023-04-20T23:02:41.787Z,7.87
2023-04-20T23:05:09.760Z,7.89
2023-04-20T23:07:37.551Z,7.82
2023-04-20T23:10:06.234Z,7.89
2023-04-20T23:12:33.495Z,7.97
2023-04-20T23:15:01.454Z,8.10
2023-04-20T23:17:29.203Z,8.10
2023-04-20T23:19:56.708Z,8.07
2023-04-20T23:22:24.445Z,7.98
2023-04-20T23:24:51.958Z,8.00
2023-04-20T23:27:19.263Z,7.91
2023-04-20T23:29:46.537Z,7.80
2023-04-20T23:32:13.830Z,7.68
2023-04-20T23:34:41.087Z,7.55
2023-04-20T23:37:08.315Z,7.46
2023-04-20T23:39:38.798Z,7.40
2023-04-20T23:42:06.352Z,7.34
2023-04-20T23:44:33.629Z,7.38
2023-04-20T23:47:01.040Z,7.33
2023-04-20T23:49:28.311Z,7.16
2023-04-20T23:51:55.506Z,7.10
2023-04-20T23:54:22.751Z,7.13
2023-04-20T23:56:50.106Z,7.17
2023-04-20T23:59:17.585Z,7.22
